OOCL Genoa — VROK9 — position and weather

sailwx.info

Track history (hours):
 
Tides and Currents Weather Stations Pressure Air Temp Water Temp Dewpoint Dewpoint Depression Visibility Wind Speed Wind Dir Waves Ship Positions

OOCL Genoa

Last reported at 2018-Apr-23 03:01 UTC. Time now 2018-Apr-23 03:49 UTC.
Position N 34°06' W 125°05'.

Length 334 m; draft 12.5 m.

Type: Cargo ship. MMSI: 477454900.

Date/timePositionNaut miles runAvg speedWind from/ knotsBaromVisibWave heightAir tempDewpointWater temp
2018-Apr-23 03:01N 34°06' W 125°05'016.6
2018-Apr-23 03:00N 34°06' W 125°04'1215.6
2018-Apr-23 02:14N 34°02' W 124°51'2314.7
2018-Apr-23 00:41N 33°59' W 124°24'514.2
2018-Apr-23 00:20N 33°58' W 124°18'514.4
2018-Apr-23 00:00N 33°58' W 124°12'814.1
2018-Apr-22 23:28N 33°57' W 124°03'713.9
2018-Apr-22 23:00N 33°56' W 123°55'713.8
2018-Apr-22 22:29N 33°56' W 123°46'713.9
2018-Apr-22 22:00N 33°55' W 123°38'713.9
2018-Apr-22 21:30N 33°55' W 123°30'713.8
2018-Apr-22 20:59N 33°54' W 123°21'613.4
2018-Apr-22 20:30N 33°54' W 123°14'713.7
2018-Apr-22 20:00N 33°53' W 123°05'713.7
2018-Apr-22 19:30N 33°53' W 122°57'1114.0
2018-Apr-22 18:45N 33°52' W 122°44'314.0
2018-Apr-22 18:30N 33°52' W 122°40'714.1
2018-Apr-22 18:00N 33°51' W 122°32'713.9
2018-Apr-22 17:30N 33°51' W 122°24'713.9
2018-Apr-22 17:00N 33°50' W 122°15'714.0
2018-Apr-22 16:30N 33°49' W 122°07'713.9
2018-Apr-22 16:00N 33°49' W 121°58'713.9
2018-Apr-22 15:30N 33°48' W 121°50'714.0
2018-Apr-22 15:00N 33°48' W 121°42'714.2
2018-Apr-22 14:30N 33°47' W 121°33'714.3
2018-Apr-22 14:00N 33°46' W 121°25'714.2
2018-Apr-22 13:30N 33°46' W 121°16'714.1
2018-Apr-22 13:00N 33°46' W 121°08'714.1
2018-Apr-22 12:30N 33°45' W 120°59'714.2
2018-Apr-22 12:00N 33°44' W 120°51'714.6
2018-Apr-22 11:30N 33°44' W 120°42'714.4
2018-Apr-22 11:00N 33°43' W 120°33'714.4
2018-Apr-22 10:30N 33°43' W 120°25'714.5
2018-Apr-22 10:00N 33°42' W 120°16'714.0
2018-Apr-22 09:29N 33°42' W 120°07'713.9
2018-Apr-22 09:00N 33°41' W 119°59'714.0
2018-Apr-22 08:30N 33°41' W 119°51'714.1
2018-Apr-22 08:00N 33°40' W 119°43'713.9
2018-Apr-22 07:30N 33°40' W 119°34'714.4
2018-Apr-22 07:00N 33°39' W 119°26'714.3
2018-Apr-22 06:30N 33°39' W 119°17'713.7
2018-Apr-22 05:59N 33°38' W 119°09'511.1
2018-Apr-22 05:30N 33°38' W 119°02'610.8
2018-Apr-22 04:59N 33°37' W 118°55'510.4
2018-Apr-22 04:29N 33°37' W 118°49'510.4
2018-Apr-22 04:00N 33°37' W 118°43'510.6
2018-Apr-22 03:29N 33°36' W 118°37'510.2
2018-Apr-22 03:00N 33°36' W 118°31'510.0
2018-Apr-22 02:31N 33°35' W 118°25'4 9.0
2018-Apr-22 02:00N 33°35' W 118°19'5 9.8
2018-Apr-22 01:30N 33°38' W 118°14'5 9.5
2018-Apr-22 01:00N 33°42' W 118°11'3 6.6
2018-Apr-22 00:30N 33°45' W 118°13'1 1.5
2018-Apr-22 00:00N 33°46' W 118°13'0 0.0
2018-Apr-21 23:30N 33°46' W 118°13'0 0.0
2018-Apr-21 23:00N 33°46' W 118°13'0 0.0
2018-Apr-21 22:30N 33°46' W 118°13'0 0.0
2018-Apr-21 22:00N 33°46' W 118°13'0 0.0
2018-Apr-21 21:30N 33°46' W 118°13'0 0.0
2018-Apr-21 21:00N 33°46' W 118°13'0 0.0
2018-Apr-21 20:30N 33°46' W 118°13'0 0.0
2018-Apr-21 20:00N 33°46' W 118°13'0 0.1
2018-Apr-21 19:30N 33°46' W 118°13'0 0.1
2018-Apr-21 19:00N 33°46' W 118°13'0 0.0
2018-Apr-21 18:30N 33°46' W 118°13'0 0.0
2018-Apr-21 18:00N 33°46' W 118°13'0 0.0
2018-Apr-21 17:30N 33°46' W 118°13'0 0.0
2018-Apr-21 17:00N 33°46' W 118°13'0 0.0
2018-Apr-21 16:30N 33°46' W 118°13'0 0.0
2018-Apr-21 16:00N 33°46' W 118°13'0 0.0
2018-Apr-21 15:30N 33°46' W 118°13'0 0.0
2018-Apr-21 15:00N 33°46' W 118°13'0 0.0
2018-Apr-21 14:30N 33°46' W 118°13'0 0.0
2018-Apr-21 14:00N 33°46' W 118°13'0 0.0
2018-Apr-21 13:30N 33°46' W 118°13'0 0.0
2018-Apr-21 13:00N 33°46' W 118°13'0 0.0
2018-Apr-21 12:30N 33°46' W 118°13'0 0.0
2018-Apr-21 12:00N 33°46' W 118°13'0 0.0
2018-Apr-21 11:30N 33°46' W 118°13'0 0.0
2018-Apr-21 10:51N 33°46' W 118°13'0 0.0
2018-Apr-21 10:30N 33°46' W 118°13'0 0.0
2018-Apr-21 09:57N 33°46' W 118°13'0 0.0
2018-Apr-21 09:30N 33°46' W 118°13'0 0.0
2018-Apr-21 09:00N 33°46' W 118°13'0 0.0
2018-Apr-21 08:27N 33°46' W 118°13'0 0.0
2018-Apr-21 08:00N 33°46' W 118°13'0 0.0
2018-Apr-21 07:30N 33°46' W 118°13'0 0.0
2018-Apr-21 07:00N 33°46' W 118°13'0 0.0
2018-Apr-21 06:30N 33°46' W 118°13'0 0.0
2018-Apr-21 06:00N 33°46' W 118°13'0 0.0
2018-Apr-21 05:30N 33°46' W 118°13'0 0.0
2018-Apr-21 05:00N 33°46' W 118°13'0 0.0
2018-Apr-21 04:27N 33°46' W 118°13'0 0.0
2018-Apr-21 04:00N 33°46' W 118°13'0 0.0
2018-Apr-21 03:27N 33°46' W 118°13'0 0.1
2018-Apr-21 03:00N 33°46' W 118°13'0 0.0
2018-Apr-21 02:30N 33°46' W 118°13'0 0.0
2018-Apr-21 02:00N 33°46' W 118°13'0 0.0
2018-Apr-21 01:30N 33°46' W 118°13'0 0.0
2018-Apr-21 01:00N 33°46' W 118°13'0 0.0
2018-Apr-21 00:30N 33°46' W 118°13'0 0.0
2018-Apr-21 00:00N 33°46' W 118°13'0 0.0
2018-Apr-20 23:30N 33°46' W 118°13'0 0.0
2018-Apr-20 23:00N 33°46' W 118°13'0 0.0
2018-Apr-20 22:30N 33°46' W 118°13'0 0.0
2018-Apr-20 21:57N 33°46' W 118°13'0 0.0
2018-Apr-20 21:30N 33°46' W 118°13'0 0.0
2018-Apr-20 21:00N 33°46' W 118°13'0 0.0
2018-Apr-20 20:30N 33°46' W 118°13'0 0.0
2018-Apr-20 20:00N 33°46' W 118°13'0 0.0
2018-Apr-20 19:30N 33°46' W 118°13'0 0.0
2018-Apr-20 19:00N 33°46' W 118°13'0 0.0
2018-Apr-20 18:30N 33°46' W 118°13'0 0.0
2018-Apr-20 18:00N 33°46' W 118°13'0 0.0
2018-Apr-20 17:30N 33°46' W 118°13'0 0.0
2018-Apr-20 17:00N 33°46' W 118°13'0 0.1
2018-Apr-20 16:30N 33°46' W 118°13'0 0.1
2018-Apr-20 16:00N 33°46' W 118°13'0 0.0
2018-Apr-20 15:30N 33°46' W 118°13'0 0.1
2018-Apr-20 14:57N 33°46' W 118°13'0 0.0
2018-Apr-20 14:30N 33°46' W 118°13'0 0.0
2018-Apr-20 14:00N 33°46' W 118°13'0 0.0
2018-Apr-20 13:30N 33°46' W 118°13'0 0.0
2018-Apr-20 13:00N 33°46' W 118°13'0 0.0
2018-Apr-20 12:30N 33°46' W 118°13'0 0.0
2018-Apr-20 12:00N 33°46' W 118°13'0 0.0
2018-Apr-20 11:24N 33°46' W 118°13'0 0.0
2018-Apr-20 11:00N 33°46' W 118°13'0 0.1
2018-Apr-20 10:30N 33°46' W 118°13'0 0.1
2018-Apr-20 10:00N 33°46' W 118°13'0 0.0
2018-Apr-20 09:30N 33°46' W 118°13'0 0.0
2018-Apr-20 09:00N 33°46' W 118°13'0 0.0
2018-Apr-20 08:27N 33°46' W 118°13'0 0.0
2018-Apr-20 08:00N 33°46' W 118°13'0 0.0
2018-Apr-20 07:27N 33°46' W 118°13'0 0.1
2018-Apr-20 07:00N 33°46' W 118°13'0 0.0
2018-Apr-20 06:30N 33°46' W 118°13'0 0.0
2018-Apr-20 05:57N 33°46' W 118°13'0 0.0
2018-Apr-20 05:30N 33°46' W 118°13'0 0.0
2018-Apr-20 05:00N 33°46' W 118°13'0 0.0
2018-Apr-20 04:24N 33°46' W 118°13'0 0.0
2018-Apr-20 04:00N 33°46' W 118°13'0 0.0
2018-Apr-20 03:30N 33°46' W 118°13'0 0.0
2018-Apr-20 03:00N 33°46' W 118°13'0 0.0
2018-Apr-20 02:30N 33°46' W 118°13'0 0.0
2018-Apr-20 02:00N 33°46' W 118°13'0 0.0
2018-Apr-20 01:30N 33°46' W 118°13'0 0.0
2018-Apr-20 01:00N 33°46' W 118°13'0 0.0
2018-Apr-20 00:30N 33°46' W 118°13'0 0.0
2018-Apr-20 00:00N 33°46' W 118°13'0 0.0
2018-Apr-19 23:30N 33°46' W 118°13'0 0.0
2018-Apr-19 23:00N 33°46' W 118°13'0 0.0
2018-Apr-19 22:30N 33°46' W 118°13'0 0.0
2018-Apr-19 21:54N 33°46' W 118°13'0 0.0
2018-Apr-19 21:24N 33°46' W 118°13'0 0.0
2018-Apr-19 21:00N 33°46' W 118°13'0 0.0
2018-Apr-19 20:30N 33°46' W 118°13'0 0.0
2018-Apr-19 20:00N 33°46' W 118°13'0 0.0
2018-Apr-19 19:30N 33°46' W 118°13'0 0.1
2018-Apr-19 19:00N 33°46' W 118°13'0 0.0
2018-Apr-19 18:30N 33°46' W 118°13'0 0.0
2018-Apr-19 18:00N 33°46' W 118°13'0 0.0
2018-Apr-19 17:30N 33°46' W 118°13'0 0.0
2018-Apr-19 17:00N 33°46' W 118°13'0 0.0
2018-Apr-19 16:30N 33°46' W 118°13'0 0.0
2018-Apr-19 16:00N 33°46' W 118°13'0 0.0
2018-Apr-19 15:30N 33°46' W 118°13'0 0.0
2018-Apr-19 14:57N 33°46' W 118°13'0 0.0
2018-Apr-19 14:30N 33°46' W 118°13'0 0.0
2018-Apr-19 14:00N 33°46' W 118°13'0 0.0
2018-Apr-19 13:30N 33°46' W 118°13'0 0.0
2018-Apr-19 13:00N 33°46' W 118°13'0 0.0
2018-Apr-19 12:30N 33°46' W 118°13'0 0.0
2018-Apr-19 12:00N 33°46' W 118°13'0 0.0
2018-Apr-19 11:30N 33°46' W 118°13'0 0.0
2018-Apr-19 11:00N 33°46' W 118°13'0 0.0
2018-Apr-19 10:30N 33°46' W 118°13'0 0.0
2018-Apr-19 10:00N 33°46' W 118°13'0 0.0
2018-Apr-19 09:30N 33°46' W 118°13'0 0.0
2018-Apr-19 09:00N 33°46' W 118°13'0 0.0
2018-Apr-19 08:30N 33°46' W 118°13'0 0.0
2018-Apr-19 07:54N 33°46' W 118°13'0 0.0
2018-Apr-19 07:30N 33°46' W 118°13'0 0.1
2018-Apr-19 07:00N 33°46' W 118°13'0 0.0
2018-Apr-19 06:30N 33°46' W 118°13'0 0.0
2018-Apr-19 06:00N 33°46' W 118°13'0 0.1
2018-Apr-19 05:30N 33°46' W 118°13'0 0.0
2018-Apr-19 05:00N 33°46' W 118°13'0 0.0
2018-Apr-19 04:30N 33°46' W 118°13'0 0.1
2018-Apr-19 03:57N 33°46' W 118°13'0 0.0
2018-Apr-19 03:30N 33°46' W 118°13'0 0.1
2018-Apr-19 03:00N 33°46' W 118°13'0 0.0
2018-Apr-19 02:30N 33°46' W 118°13'0 0.0
2018-Apr-19 02:00N 33°46' W 118°13'0 0.0
2018-Apr-19 01:30N 33°46' W 118°13'0 0.0
2018-Apr-19 01:00N 33°46' W 118°13'0 0.0
2018-Apr-19 00:30N 33°46' W 118°13'0 0.0
2018-Apr-19 00:00N 33°46' W 118°13'0 0.0
2018-Apr-18 23:30N 33°46' W 118°13'0 0.0
2018-Apr-18 23:00N 33°46' W 118°13'0 0.0
2018-Apr-18 22:30N 33°46' W 118°13'0 0.0
2018-Apr-18 22:00N 33°46' W 118°13'0 0.0
2018-Apr-18 21:30N 33°46' W 118°13'0 0.0
2018-Apr-18 21:00N 33°46' W 118°13'0 0.0
2018-Apr-18 20:30N 33°46' W 118°13'0 0.0
2018-Apr-18 20:00N 33°46' W 118°13'0 0.0
2018-Apr-18 19:30N 33°46' W 118°13'0 0.0
2018-Apr-18 19:00N 33°46' W 118°13'0 0.0
2018-Apr-18 18:30N 33°46' W 118°13'0 0.0
2018-Apr-18 18:00N 33°46' W 118°13'0 0.0
2018-Apr-18 17:30N 33°46' W 118°13'0 0.1
2018-Apr-18 17:00N 33°46' W 118°13'0 0.0
2018-Apr-18 16:30N 33°46' W 118°13'0 0.0
2018-Apr-18 16:00N 33°46' W 118°13'0 0.0
2018-Apr-18 15:30N 33°46' W 118°13'0 0.0
2018-Apr-18 14:57N 33°46' W 118°13'0 0.0
2018-Apr-18 14:30N 33°46' W 118°13'0 0.0
2018-Apr-18 14:00N 33°46' W 118°13'0 0.0
2018-Apr-18 13:30N 33°46' W 118°13'1 1.3
2018-Apr-18 13:00N 33°45' W 118°13'2 4.5
2018-Apr-18 12:30N 33°43' W 118°11'4 8.5
2018-Apr-18 12:00N 33°39' W 118°11'510.2
2018-Apr-18 11:31N 33°36' W 118°16'5 9.8
2018-Apr-18 11:00N 33°35' W 118°22'510.3
2018-Apr-18 10:31N 33°36' W 118°28'510.8
2018-Apr-18 10:01N 33°36' W 118°34'911.6
2018-Apr-18 09:15N 33°37' W 118°45'311.8
2018-Apr-18 09:00N 33°38' W 118°48'611.5
2018-Apr-18 08:30N 33°38' W 118°55'611.6
2018-Apr-18 08:00N 33°39' W 119°02'612.3
2018-Apr-18 07:29N 33°39' W 119°10'1112.4
2018-Apr-18 06:34N 33°39' W 119°23'112.3
2018-Apr-18 06:29N 33°39' W 119°25'612.7
2018-Apr-18 06:00N 33°40' W 119°32'612.4
2018-Apr-18 05:29N 33°40' W 119°40'612.3
2018-Apr-18 05:00N 33°40' W 119°47'712.5
2018-Apr-18 04:26N 33°40' W 119°55'714.2
2018-Apr-18 03:59N 33°41' W 120°03'715.0
2018-Apr-18 03:30N 33°41' W 120°12'714.9
2018-Apr-18 03:00N 33°41' W 120°21'814.9
2018-Apr-18 02:29N 33°41' W 120°30'815.3
2018-Apr-18 02:00N 33°41' W 120°39'715.2
2018-Apr-18 01:30N 33°42' W 120°48'815.3
2018-Apr-18 01:00N 33°42' W 120°57'815.3
2018-Apr-18 00:29N 33°42' W 121°07'715.4
2018-Apr-18 00:00N 33°42' W 121°16'815.5
2018-Apr-17 23:30N 33°43' W 121°25'814.0
2018-Apr-17 22:57N 33°43' W 121°34'3 7.5
2018-Apr-17 22:30N 33°43' W 121°38'  
Track history (hours):
 
Tides and Currents Weather Stations Pressure Air Temp Water Temp Dewpoint Dewpoint Depression Visibility Wind Speed Wind Dir Waves Ship Positions

OOCL Genoa

Last reported at 2018-Apr-23 03:01 UTC. Time now 2018-Apr-23 03:49 UTC.
Position N 34°06' W 125°05'.

Length 334 m; draft 12.5 m.

Type: Cargo ship. MMSI: 477454900.

Date/timePositionNaut miles runAvg speedWind from/ knotsBaromVisibWave heightAir tempDewpointWater temp
2018-Apr-23 03:01N 34°06' W 125°05'016.6
2018-Apr-23 03:00N 34°06' W 125°04'1215.6
2018-Apr-23 02:14N 34°02' W 124°51'2314.7
2018-Apr-23 00:41N 33°59' W 124°24'514.2
2018-Apr-23 00:20N 33°58' W 124°18'514.4
2018-Apr-23 00:00N 33°58' W 124°12'814.1
2018-Apr-22 23:28N 33°57' W 124°03'713.9
2018-Apr-22 23:00N 33°56' W 123°55'713.8
2018-Apr-22 22:29N 33°56' W 123°46'713.9
2018-Apr-22 22:00N 33°55' W 123°38'713.9
2018-Apr-22 21:30N 33°55' W 123°30'713.8
2018-Apr-22 20:59N 33°54' W 123°21'613.4
2018-Apr-22 20:30N 33°54' W 123°14'713.7
2018-Apr-22 20:00N 33°53' W 123°05'713.7
2018-Apr-22 19:30N 33°53' W 122°57'1114.0
2018-Apr-22 18:45N 33°52' W 122°44'314.0
2018-Apr-22 18:30N 33°52' W 122°40'714.1
2018-Apr-22 18:00N 33°51' W 122°32'713.9
2018-Apr-22 17:30N 33°51' W 122°24'713.9
2018-Apr-22 17:00N 33°50' W 122°15'714.0
2018-Apr-22 16:30N 33°49' W 122°07'713.9
2018-Apr-22 16:00N 33°49' W 121°58'713.9
2018-Apr-22 15:30N 33°48' W 121°50'714.0
2018-Apr-22 15:00N 33°48' W 121°42'714.2
2018-Apr-22 14:30N 33°47' W 121°33'714.3
2018-Apr-22 14:00N 33°46' W 121°25'714.2
2018-Apr-22 13:30N 33°46' W 121°16'714.1
2018-Apr-22 13:00N 33°46' W 121°08'714.1
2018-Apr-22 12:30N 33°45' W 120°59'714.2
2018-Apr-22 12:00N 33°44' W 120°51'714.6
2018-Apr-22 11:30N 33°44' W 120°42'714.4
2018-Apr-22 11:00N 33°43' W 120°33'714.4
2018-Apr-22 10:30N 33°43' W 120°25'714.5
2018-Apr-22 10:00N 33°42' W 120°16'714.0
2018-Apr-22 09:29N 33°42' W 120°07'713.9
2018-Apr-22 09:00N 33°41' W 119°59'714.0
2018-Apr-22 08:30N 33°41' W 119°51'714.1
2018-Apr-22 08:00N 33°40' W 119°43'713.9
2018-Apr-22 07:30N 33°40' W 119°34'714.4
2018-Apr-22 07:00N 33°39' W 119°26'714.3
2018-Apr-22 06:30N 33°39' W 119°17'713.7
2018-Apr-22 05:59N 33°38' W 119°09'511.1
2018-Apr-22 05:30N 33°38' W 119°02'610.8
2018-Apr-22 04:59N 33°37' W 118°55'510.4
2018-Apr-22 04:29N 33°37' W 118°49'510.4
2018-Apr-22 04:00N 33°37' W 118°43'510.6
2018-Apr-22 03:29N 33°36' W 118°37'510.2
2018-Apr-22 03:00N 33°36' W 118°31'510.0
2018-Apr-22 02:31N 33°35' W 118°25'4 9.0
2018-Apr-22 02:00N 33°35' W 118°19'5 9.8
2018-Apr-22 01:30N 33°38' W 118°14'5 9.5
2018-Apr-22 01:00N 33°42' W 118°11'3 6.6
2018-Apr-22 00:30N 33°45' W 118°13'1 1.5
2018-Apr-22 00:00N 33°46' W 118°13'0 0.0
2018-Apr-21 23:30N 33°46' W 118°13'0 0.0
2018-Apr-21 23:00N 33°46' W 118°13'0 0.0
2018-Apr-21 22:30N 33°46' W 118°13'0 0.0
2018-Apr-21 22:00N 33°46' W 118°13'0 0.0
2018-Apr-21 21:30N 33°46' W 118°13'0 0.0
2018-Apr-21 21:00N 33°46' W 118°13'0 0.0
2018-Apr-21 20:30N 33°46' W 118°13'0 0.0
2018-Apr-21 20:00N 33°46' W 118°13'0 0.1
2018-Apr-21 19:30N 33°46' W 118°13'0 0.1
2018-Apr-21 19:00N 33°46' W 118°13'0 0.0
2018-Apr-21 18:30N 33°46' W 118°13'0 0.0
2018-Apr-21 18:00N 33°46' W 118°13'0 0.0
2018-Apr-21 17:30N 33°46' W 118°13'0 0.0
2018-Apr-21 17:00N 33°46' W 118°13'0 0.0
2018-Apr-21 16:30N 33°46' W 118°13'0 0.0
2018-Apr-21 16:00N 33°46' W 118°13'0 0.0
2018-Apr-21 15:30N 33°46' W 118°13'0 0.0
2018-Apr-21 15:00N 33°46' W 118°13'0 0.0
2018-Apr-21 14:30N 33°46' W 118°13'0 0.0
2018-Apr-21 14:00N 33°46' W 118°13'0 0.0
2018-Apr-21 13:30N 33°46' W 118°13'0 0.0
2018-Apr-21 13:00N 33°46' W 118°13'0 0.0
2018-Apr-21 12:30N 33°46' W 118°13'0 0.0
2018-Apr-21 12:00N 33°46' W 118°13'0 0.0
2018-Apr-21 11:30N 33°46' W 118°13'0 0.0
2018-Apr-21 10:51N 33°46' W 118°13'0 0.0
2018-Apr-21 10:30N 33°46' W 118°13'0 0.0
2018-Apr-21 09:57N 33°46' W 118°13'0 0.0
2018-Apr-21 09:30N 33°46' W 118°13'0 0.0
2018-Apr-21 09:00N 33°46' W 118°13'0 0.0
2018-Apr-21 08:27N 33°46' W 118°13'0 0.0
2018-Apr-21 08:00N 33°46' W 118°13'0 0.0
2018-Apr-21 07:30N 33°46' W 118°13'0 0.0
2018-Apr-21 07:00N 33°46' W 118°13'0 0.0
2018-Apr-21 06:30N 33°46' W 118°13'0 0.0
2018-Apr-21 06:00N 33°46' W 118°13'0 0.0
2018-Apr-21 05:30N 33°46' W 118°13'0 0.0
2018-Apr-21 05:00N 33°46' W 118°13'0 0.0
2018-Apr-21 04:27N 33°46' W 118°13'0 0.0
2018-Apr-21 04:00N 33°46' W 118°13'0 0.0
2018-Apr-21 03:27N 33°46' W 118°13'0 0.1
2018-Apr-21 03:00N 33°46' W 118°13'0 0.0
2018-Apr-21 02:30N 33°46' W 118°13'0 0.0
2018-Apr-21 02:00N 33°46' W 118°13'0 0.0
2018-Apr-21 01:30N 33°46' W 118°13'0 0.0
2018-Apr-21 01:00N 33°46' W 118°13'0 0.0
2018-Apr-21 00:30N 33°46' W 118°13'0 0.0
2018-Apr-21 00:00N 33°46' W 118°13'0 0.0
2018-Apr-20 23:30N 33°46' W 118°13'0 0.0
2018-Apr-20 23:00N 33°46' W 118°13'0 0.0
2018-Apr-20 22:30N 33°46' W 118°13'0 0.0
2018-Apr-20 21:57N 33°46' W 118°13'0 0.0
2018-Apr-20 21:30N 33°46' W 118°13'0 0.0
2018-Apr-20 21:00N 33°46' W 118°13'0 0.0
2018-Apr-20 20:30N 33°46' W 118°13'0 0.0
2018-Apr-20 20:00N 33°46' W 118°13'0 0.0
2018-Apr-20 19:30N 33°46' W 118°13'0 0.0
2018-Apr-20 19:00N 33°46' W 118°13'0 0.0
2018-Apr-20 18:30N 33°46' W 118°13'0 0.0
2018-Apr-20 18:00N 33°46' W 118°13'0 0.0
2018-Apr-20 17:30N 33°46' W 118°13'0 0.0
2018-Apr-20 17:00N 33°46' W 118°13'0 0.1
2018-Apr-20 16:30N 33°46' W 118°13'0 0.1
2018-Apr-20 16:00N 33°46' W 118°13'0 0.0
2018-Apr-20 15:30N 33°46' W 118°13'0 0.1
2018-Apr-20 14:57N 33°46' W 118°13'0 0.0
2018-Apr-20 14:30N 33°46' W 118°13'0 0.0
2018-Apr-20 14:00N 33°46' W 118°13'0 0.0
2018-Apr-20 13:30N 33°46' W 118°13'0 0.0
2018-Apr-20 13:00N 33°46' W 118°13'0 0.0
2018-Apr-20 12:30N 33°46' W 118°13'0 0.0
2018-Apr-20 12:00N 33°46' W 118°13'0 0.0
2018-Apr-20 11:24N 33°46' W 118°13'0 0.0
2018-Apr-20 11:00N 33°46' W 118°13'0 0.1
2018-Apr-20 10:30N 33°46' W 118°13'0 0.1
2018-Apr-20 10:00N 33°46' W 118°13'0 0.0
2018-Apr-20 09:30N 33°46' W 118°13'0 0.0
2018-Apr-20 09:00N 33°46' W 118°13'0 0.0
2018-Apr-20 08:27N 33°46' W 118°13'0 0.0
2018-Apr-20 08:00N 33°46' W 118°13'0 0.0
2018-Apr-20 07:27N 33°46' W 118°13'0 0.1
2018-Apr-20 07:00N 33°46' W 118°13'0 0.0
2018-Apr-20 06:30N 33°46' W 118°13'0 0.0
2018-Apr-20 05:57N 33°46' W 118°13'0 0.0
2018-Apr-20 05:30N 33°46' W 118°13'0 0.0
2018-Apr-20 05:00N 33°46' W 118°13'0 0.0
2018-Apr-20 04:24N 33°46' W 118°13'0 0.0
2018-Apr-20 04:00N 33°46' W 118°13'0 0.0
2018-Apr-20 03:30N 33°46' W 118°13'0 0.0
2018-Apr-20 03:00N 33°46' W 118°13'0 0.0
2018-Apr-20 02:30N 33°46' W 118°13'0 0.0
2018-Apr-20 02:00N 33°46' W 118°13'0 0.0
2018-Apr-20 01:30N 33°46' W 118°13'0 0.0
2018-Apr-20 01:00N 33°46' W 118°13'0 0.0
2018-Apr-20 00:30N 33°46' W 118°13'0 0.0
2018-Apr-20 00:00N 33°46' W 118°13'0 0.0
2018-Apr-19 23:30N 33°46' W 118°13'0 0.0
2018-Apr-19 23:00N 33°46' W 118°13'0 0.0
2018-Apr-19 22:30N 33°46' W 118°13'0 0.0
2018-Apr-19 21:54N 33°46' W 118°13'0 0.0
2018-Apr-19 21:24N 33°46' W 118°13'0 0.0
2018-Apr-19 21:00N 33°46' W 118°13'0 0.0
2018-Apr-19 20:30N 33°46' W 118°13'0 0.0
2018-Apr-19 20:00N 33°46' W 118°13'0 0.0
2018-Apr-19 19:30N 33°46' W 118°13'0 0.1
2018-Apr-19 19:00N 33°46' W 118°13'0 0.0
2018-Apr-19 18:30N 33°46' W 118°13'0 0.0
2018-Apr-19 18:00N 33°46' W 118°13'0 0.0
2018-Apr-19 17:30N 33°46' W 118°13'0 0.0
2018-Apr-19 17:00N 33°46' W 118°13'0 0.0
2018-Apr-19 16:30N 33°46' W 118°13'0 0.0
2018-Apr-19 16:00N 33°46' W 118°13'0 0.0
2018-Apr-19 15:30N 33°46' W 118°13'0 0.0
2018-Apr-19 14:57N 33°46' W 118°13'0 0.0
2018-Apr-19 14:30N 33°46' W 118°13'0 0.0
2018-Apr-19 14:00N 33°46' W 118°13'0 0.0
2018-Apr-19 13:30N 33°46' W 118°13'0 0.0
2018-Apr-19 13:00N 33°46' W 118°13'0 0.0
2018-Apr-19 12:30N 33°46' W 118°13'0 0.0
2018-Apr-19 12:00N 33°46' W 118°13'0 0.0
2018-Apr-19 11:30N 33°46' W 118°13'0 0.0
2018-Apr-19 11:00N 33°46' W 118°13'0 0.0
2018-Apr-19 10:30N 33°46' W 118°13'0 0.0
2018-Apr-19 10:00N 33°46' W 118°13'0 0.0
2018-Apr-19 09:30N 33°46' W 118°13'0 0.0
2018-Apr-19 09:00N 33°46' W 118°13'0 0.0
2018-Apr-19 08:30N 33°46' W 118°13'0 0.0
2018-Apr-19 07:54N 33°46' W 118°13'0 0.0
2018-Apr-19 07:30N 33°46' W 118°13'0 0.1
2018-Apr-19 07:00N 33°46' W 118°13'0 0.0
2018-Apr-19 06:30N 33°46' W 118°13'0 0.0
2018-Apr-19 06:00N 33°46' W 118°13'0 0.1
2018-Apr-19 05:30N 33°46' W 118°13'0 0.0
2018-Apr-19 05:00N 33°46' W 118°13'0 0.0
2018-Apr-19 04:30N 33°46' W 118°13'0 0.1
2018-Apr-19 03:57N 33°46' W 118°13'0 0.0
2018-Apr-19 03:30N 33°46' W 118°13'0 0.1
2018-Apr-19 03:00N 33°46' W 118°13'0 0.0
2018-Apr-19 02:30N 33°46' W 118°13'0 0.0
2018-Apr-19 02:00N 33°46' W 118°13'0 0.0
2018-Apr-19 01:30N 33°46' W 118°13'0 0.0
2018-Apr-19 01:00N 33°46' W 118°13'0 0.0
2018-Apr-19 00:30N 33°46' W 118°13'0 0.0
2018-Apr-19 00:00N 33°46' W 118°13'0 0.0
2018-Apr-18 23:30N 33°46' W 118°13'0 0.0
2018-Apr-18 23:00N 33°46' W 118°13'0 0.0
2018-Apr-18 22:30N 33°46' W 118°13'0 0.0
2018-Apr-18 22:00N 33°46' W 118°13'0 0.0
2018-Apr-18 21:30N 33°46' W 118°13'0 0.0
2018-Apr-18 21:00N 33°46' W 118°13'0 0.0
2018-Apr-18 20:30N 33°46' W 118°13'0 0.0
2018-Apr-18 20:00N 33°46' W 118°13'0 0.0
2018-Apr-18 19:30N 33°46' W 118°13'0 0.0
2018-Apr-18 19:00N 33°46' W 118°13'0 0.0
2018-Apr-18 18:30N 33°46' W 118°13'0 0.0
2018-Apr-18 18:00N 33°46' W 118°13'0 0.0
2018-Apr-18 17:30N 33°46' W 118°13'0 0.1
2018-Apr-18 17:00N 33°46' W 118°13'0 0.0
2018-Apr-18 16:30N 33°46' W 118°13'0 0.0
2018-Apr-18 16:00N 33°46' W 118°13'0 0.0
2018-Apr-18 15:30N 33°46' W 118°13'0 0.0
2018-Apr-18 14:57N 33°46' W 118°13'0 0.0
2018-Apr-18 14:30N 33°46' W 118°13'0 0.0
2018-Apr-18 14:00N 33°46' W 118°13'0 0.0
2018-Apr-18 13:30N 33°46' W 118°13'1 1.3
2018-Apr-18 13:00N 33°45' W 118°13'2 4.5
2018-Apr-18 12:30N 33°43' W 118°11'4 8.5
2018-Apr-18 12:00N 33°39' W 118°11'510.2
2018-Apr-18 11:31N 33°36' W 118°16'5 9.8
2018-Apr-18 11:00N 33°35' W 118°22'510.3
2018-Apr-18 10:31N 33°36' W 118°28'510.8
2018-Apr-18 10:01N 33°36' W 118°34'911.6
2018-Apr-18 09:15N 33°37' W 118°45'311.8
2018-Apr-18 09:00N 33°38' W 118°48'611.5
2018-Apr-18 08:30N 33°38' W 118°55'611.6
2018-Apr-18 08:00N 33°39' W 119°02'612.3
2018-Apr-18 07:29N 33°39' W 119°10'1112.4
2018-Apr-18 06:34N 33°39' W 119°23'112.3
2018-Apr-18 06:29N 33°39' W 119°25'612.7
2018-Apr-18 06:00N 33°40' W 119°32'612.4
2018-Apr-18 05:29N 33°40' W 119°40'612.3
2018-Apr-18 05:00N 33°40' W 119°47'712.5
2018-Apr-18 04:26N 33°40' W 119°55'714.2
2018-Apr-18 03:59N 33°41' W 120°03'715.0
2018-Apr-18 03:30N 33°41' W 120°12'714.9
2018-Apr-18 03:00N 33°41' W 120°21'814.9
2018-Apr-18 02:29N 33°41' W 120°30'815.3
2018-Apr-18 02:00N 33°41' W 120°39'715.2
2018-Apr-18 01:30N 33°42' W 120°48'815.3
2018-Apr-18 01:00N 33°42' W 120°57'815.3
2018-Apr-18 00:29N 33°42' W 121°07'715.4
2018-Apr-18 00:00N 33°42' W 121°16'815.5
2018-Apr-17 23:30N 33°43' W 121°25'814.0
2018-Apr-17 22:57N 33°43' W 121°34'3 7.5
2018-Apr-17 22:30N 33°43' W 121°38'  

Dump ship's entire track history